sensor_id;sensor_type;location;lat;lon;timestamp;P1;durP1;ratioP1;P2;durP2;ratioP2
9188;SDS011;34313;50.780;6.084;2023-07-08T00:00:43;12.50;;;8.10;;
9188;SDS011;34313;50.780;6.084;2023-07-08T00:03:10;14.83;;;7.57;;
9188;SDS011;34313;50.780;6.084;2023-07-08T00:05:36;13.00;;;8.07;;
9188;SDS011;34313;50.780;6.084;2023-07-08T00:08:02;10.47;;;7.63;;
9188;SDS011;34313;50.780;6.084;2023-07-08T00:10:28;10.13;;;6.77;;
9188;SDS011;34313;50.780;6.084;2023-07-08T00:12:55;10.83;;;7.33;;
9188;SDS011;34313;50.780;6.084;2023-07-08T00:15:22;8.53;;;6.13;;
9188;SDS011;34313;50.780;6.084;2023-07-08T00:17:51;9.27;;;6.70;;
9188;SDS011;34313;50.780;6.084;2023-07-08T00:20:18;10.67;;;7.93;;
9188;SDS011;34313;50.780;6.084;2023-07-08T00:22:46;9.50;;;6.57;;
9188;SDS011;34313;50.780;6.084;2023-07-08T00:25:14;10.63;;;6.80;;
9188;SDS011;34313;50.780;6.084;2023-07-08T00:27:40;10.83;;;6.93;;
9188;SDS011;34313;50.780;6.084;2023-07-08T00:32:47;10.63;;;6.70;;
9188;SDS011;34313;50.780;6.084;2023-07-08T00:37:51;10.67;;;7.40;;
9188;SDS011;34313;50.780;6.084;2023-07-08T00:40:26;16.63;;;7.57;;
9188;SDS011;34313;50.780;6.084;2023-07-08T00:42:58;11.70;;;7.30;;
9188;SDS011;34313;50.780;6.084;2023-07-08T00:48:03;8.37;;;6.10;;
9188;SDS011;34313;50.780;6.084;2023-07-08T00:50:40;9.63;;;6.60;;
9188;SDS011;34313;50.780;6.084;2023-07-08T00:55:55;9.10;;;6.90;;
9188;SDS011;34313;50.780;6.084;2023-07-08T00:58:30;11.53;;;6.67;;
9188;SDS011;34313;50.780;6.084;2023-07-08T01:00:59;12.13;;;7.40;;
9188;SDS011;34313;50.780;6.084;2023-07-08T01:03:28;9.73;;;6.17;;
9188;SDS011;34313;50.780;6.084;2023-07-08T01:05:54;8.87;;;5.90;;
9188;SDS011;34313;50.780;6.084;2023-07-08T01:08:25;10.47;;;7.13;;
9188;SDS011;34313;50.780;6.084;2023-07-08T01:10:54;10.67;;;6.53;;
9188;SDS011;34313;50.780;6.084;2023-07-08T01:13:27;10.30;;;6.67;;
9188;SDS011;34313;50.780;6.084;2023-07-08T01:15:57;13.53;;;8.00;;
9188;SDS011;34313;50.780;6.084;2023-07-08T01:18:23;10.10;;;6.90;;
9188;SDS011;34313;50.780;6.084;2023-07-08T01:20:50;10.63;;;7.23;;
9188;SDS011;34313;50.780;6.084;2023-07-08T01:23:15;11.97;;;6.43;;
9188;SDS011;34313;50.780;6.084;2023-07-08T01:25:43;12.03;;;7.63;;
9188;SDS011;34313;50.780;6.084;2023-07-08T01:28:10;12.70;;;6.93;;
9188;SDS011;34313;50.780;6.084;2023-07-08T01:30:36;10.20;;;6.90;;
9188;SDS011;34313;50.780;6.084;2023-07-08T01:33:06;10.83;;;6.80;;
9188;SDS011;34313;50.780;6.084;2023-07-08T01:35:37;11.70;;;6.73;;
9188;SDS011;34313;50.780;6.084;2023-07-08T01:38:03;8.70;;;6.37;;
9188;SDS011;34313;50.780;6.084;2023-07-08T01:40:34;9.93;;;6.97;;
9188;SDS011;34313;50.780;6.084;2023-07-08T01:43:01;9.40;;;7.07;;
9188;SDS011;34313;50.780;6.084;2023-07-08T01:45:29;13.77;;;6.90;;
9188;SDS011;34313;50.780;6.084;2023-07-08T01:47:59;11.43;;;7.43;;
9188;SDS011;34313;50.780;6.084;2023-07-08T01:50:28;13.07;;;6.63;;
9188;SDS011;34313;50.780;6.084;2023-07-08T01:52:56;12.73;;;7.33;;
9188;SDS011;34313;50.780;6.084;2023-07-08T01:55:24;8.80;;;6.20;;
9188;SDS011;34313;50.780;6.084;2023-07-08T01:57:53;8.53;;;6.77;;
9188;SDS011;34313;50.780;6.084;2023-07-08T02:00:19;9.67;;;6.40;;
9188;SDS011;34313;50.780;6.084;2023-07-08T02:02:45;8.10;;;6.00;;
9188;SDS011;34313;50.780;6.084;2023-07-08T02:05:10;8.80;;;6.77;;
9188;SDS011;34313;50.780;6.084;2023-07-08T02:07:35;9.80;;;6.40;;
9188;SDS011;34313;50.780;6.084;2023-07-08T02:10:01;9.43;;;6.27;;
9188;SDS011;34313;50.780;6.084;2023-07-08T02:12:26;9.33;;;7.10;;
9188;SDS011;34313;50.780;6.084;2023-07-08T02:14:51;9.70;;;7.30;;
9188;SDS011;34313;50.780;6.084;2023-07-08T02:17:17;11.53;;;7.00;;
9188;SDS011;34313;50.780;6.084;2023-07-08T02:19:43;10.43;;;6.90;;
9188;SDS011;34313;50.780;6.084;2023-07-08T02:22:09;10.23;;;6.70;;
9188;SDS011;34313;50.780;6.084;2023-07-08T02:24:34;9.43;;;7.20;;
9188;SDS011;34313;50.780;6.084;2023-07-08T02:27:00;10.23;;;6.57;;
9188;SDS011;34313;50.780;6.084;2023-07-08T02:29:25;10.83;;;6.93;;
9188;SDS011;34313;50.780;6.084;2023-07-08T02:31:51;12.07;;;6.53;;
9188;SDS011;34313;50.780;6.084;2023-07-08T02:34:16;12.30;;;7.07;;
9188;SDS011;34313;50.780;6.084;2023-07-08T02:36:42;9.00;;;6.60;;
9188;SDS011;34313;50.780;6.084;2023-07-08T02:39:09;12.60;;;6.87;;
9188;SDS011;34313;50.780;6.084;2023-07-08T02:41:36;10.30;;;6.90;;
9188;SDS011;34313;50.780;6.084;2023-07-08T02:44:01;12.30;;;7.80;;
9188;SDS011;34313;50.780;6.084;2023-07-08T02:46:27;10.50;;;7.13;;
9188;SDS011;34313;50.780;6.084;2023-07-08T02:48:52;10.10;;;6.70;;
9188;SDS011;34313;50.780;6.084;2023-07-08T02:51:18;12.00;;;7.33;;
9188;SDS011;34313;50.780;6.084;2023-07-08T02:53:43;10.93;;;6.60;;
9188;SDS011;34313;50.780;6.084;2023-07-08T02:56:09;9.43;;;6.83;;
9188;SDS011;34313;50.780;6.084;2023-07-08T02:58:34;11.67;;;7.40;;
9188;SDS011;34313;50.780;6.084;2023-07-08T03:01:00;10.50;;;8.50;;
9188;SDS011;34313;50.780;6.084;2023-07-08T03:03:26;9.53;;;7.13;;
9188;SDS011;34313;50.780;6.084;2023-07-08T03:05:59;12.17;;;7.43;;
9188;SDS011;34313;50.780;6.084;2023-07-08T03:08:27;18.73;;;8.17;;
9188;SDS011;34313;50.780;6.084;2023-07-08T03:10:55;12.40;;;7.53;;
9188;SDS011;34313;50.780;6.084;2023-07-08T03:13:22;12.67;;;7.13;;
9188;SDS011;34313;50.780;6.084;2023-07-08T03:15:48;10.90;;;7.07;;
9188;SDS011;34313;50.780;6.084;2023-07-08T03:18:15;9.20;;;6.90;;
9188;SDS011;34313;50.780;6.084;2023-07-08T03:20:40;16.47;;;7.87;;
9188;SDS011;34313;50.780;6.084;2023-07-08T03:23:06;11.27;;;6.97;;
9188;SDS011;34313;50.780;6.084;2023-07-08T03:25:31;13.37;;;7.80;;
9188;SDS011;34313;50.780;6.084;2023-07-08T03:27:57;14.33;;;7.57;;
9188;SDS011;34313;50.780;6.084;2023-07-08T03:30:22;11.13;;;7.30;;
9188;SDS011;34313;50.780;6.084;2023-07-08T03:32:48;12.83;;;8.27;;
9188;SDS011;34313;50.780;6.084;2023-07-08T03:35:13;15.20;;;7.20;;
9188;SDS011;34313;50.780;6.084;2023-07-08T03:37:39;10.70;;;7.47;;
9188;SDS011;34313;50.780;6.084;2023-07-08T03:40:04;18.57;;;9.30;;
9188;SDS011;34313;50.780;6.084;2023-07-08T03:42:34;14.93;;;8.27;;
9188;SDS011;34313;50.780;6.084;2023-07-08T03:45:00;11.13;;;7.77;;
9188;SDS011;34313;50.780;6.084;2023-07-08T03:47:25;10.33;;;7.83;;
9188;SDS011;34313;50.780;6.084;2023-07-08T03:49:50;11.50;;;7.03;;
9188;SDS011;34313;50.780;6.084;2023-07-08T03:52:16;11.20;;;7.47;;
9188;SDS011;34313;50.780;6.084;2023-07-08T03:54:42;15.47;;;8.47;;
9188;SDS011;34313;50.780;6.084;2023-07-08T03:57:13;13.27;;;7.93;;
9188;SDS011;34313;50.780;6.084;2023-07-08T03:59:38;10.60;;;7.67;;
9188;SDS011;34313;50.780;6.084;2023-07-08T04:02:03;13.07;;;8.47;;
9188;SDS011;34313;50.780;6.084;2023-07-08T04:04:29;11.67;;;7.70;;
9188;SDS011;34313;50.780;6.084;2023-07-08T04:06:54;9.73;;;7.33;;
9188;SDS011;34313;50.780;6.084;2023-07-08T04:09:20;13.40;;;7.70;;
9188;SDS011;34313;50.780;6.084;2023-07-08T04:11:46;11.50;;;8.00;;
9188;SDS011;34313;50.780;6.084;2023-07-08T04:14:11;11.33;;;7.67;;
9188;SDS011;34313;50.780;6.084;2023-07-08T04:16:44;12.07;;;7.30;;
9188;SDS011;34313;50.780;6.084;2023-07-08T04:19:19;12.30;;;8.03;;
9188;SDS011;34313;50.780;6.084;2023-07-08T04:21:45;11.73;;;7.80;;
9188;SDS011;34313;50.780;6.084;2023-07-08T04:24:11;9.73;;;7.67;;
9188;SDS011;34313;50.780;6.084;2023-07-08T04:26:38;12.03;;;8.57;;
9188;SDS011;34313;50.780;6.084;2023-07-08T04:29:06;12.20;;;7.97;;
9188;SDS011;34313;50.780;6.084;2023-07-08T04:31:35;10.77;;;7.03;;
9188;SDS011;34313;50.780;6.084;2023-07-08T04:34:00;10.10;;;7.37;;
9188;SDS011;34313;50.780;6.084;2023-07-08T04:36:25;11.67;;;8.00;;
9188;SDS011;34313;50.780;6.084;2023-07-08T04:38:51;10.70;;;7.60;;
9188;SDS011;34313;50.780;6.084;2023-07-08T04:41:17;10.50;;;7.40;;
9188;SDS011;34313;50.780;6.084;2023-07-08T04:43:43;10.97;;;6.90;;
9188;SDS011;34313;50.780;6.084;2023-07-08T04:46:31;13.00;;;8.20;;
9188;SDS011;34313;50.780;6.084;2023-07-08T04:49:04;10.97;;;7.70;;
9188;SDS011;34313;50.780;6.084;2023-07-08T04:51:31;12.50;;;7.50;;
9188;SDS011;34313;50.780;6.084;2023-07-08T04:53:57;12.73;;;8.07;;
9188;SDS011;34313;50.780;6.084;2023-07-08T04:56:22;15.33;;;8.13;;
9188;SDS011;34313;50.780;6.084;2023-07-08T04:58:48;10.83;;;7.30;;
9188;SDS011;34313;50.780;6.084;2023-07-08T05:01:14;11.73;;;7.67;;
9188;SDS011;34313;50.780;6.084;2023-07-08T05:03:39;12.63;;;8.43;;
9188;SDS011;34313;50.780;6.084;2023-07-08T05:06:04;10.80;;;7.70;;
9188;SDS011;34313;50.780;6.084;2023-07-08T05:08:30;11.67;;;7.80;;
9188;SDS011;34313;50.780;6.084;2023-07-08T05:10:55;13.17;;;8.20;;
9188;SDS011;34313;50.780;6.084;2023-07-08T05:13:21;14.90;;;7.73;;
9188;SDS011;34313;50.780;6.084;2023-07-08T05:15:47;10.30;;;7.63;;
9188;SDS011;34313;50.780;6.084;2023-07-08T05:18:13;13.13;;;8.40;;
9188;SDS011;34313;50.780;6.084;2023-07-08T05:20:38;10.73;;;7.40;;
9188;SDS011;34313;50.780;6.084;2023-07-08T05:23:04;14.10;;;7.90;;
9188;SDS011;34313;50.780;6.084;2023-07-08T05:25:30;11.73;;;8.70;;
9188;SDS011;34313;50.780;6.084;2023-07-08T05:27:57;10.73;;;7.93;;
9188;SDS011;34313;50.780;6.084;2023-07-08T05:30:22;11.47;;;7.90;;
9188;SDS011;34313;50.780;6.084;2023-07-08T05:32:48;11.67;;;8.60;;
9188;SDS011;34313;50.780;6.084;2023-07-08T05:35:13;12.63;;;8.27;;
9188;SDS011;34313;50.780;6.084;2023-07-08T05:37:39;12.63;;;8.93;;
9188;SDS011;34313;50.780;6.084;2023-07-08T05:40:05;11.93;;;9.03;;
9188;SDS011;34313;50.780;6.084;2023-07-08T05:42:32;13.63;;;8.10;;
9188;SDS011;34313;50.780;6.084;2023-07-08T05:44:57;13.73;;;10.43;;
9188;SDS011;34313;50.780;6.084;2023-07-08T05:47:22;13.75;;;9.05;;
9188;SDS011;34313;50.780;6.084;2023-07-08T05:49:48;11.30;;;8.52;;
9188;SDS011;34313;50.780;6.084;2023-07-08T05:52:13;9.35;;;8.15;;
9188;SDS011;34313;50.780;6.084;2023-07-08T05:54:39;10.88;;;8.07;;
9188;SDS011;34313;50.780;6.084;2023-07-08T05:57:07;9.32;;;8.27;;
9188;SDS011;34313;50.780;6.084;2023-07-08T05:59:34;10.38;;;8.93;;
9188;SDS011;34313;50.780;6.084;2023-07-08T06:02:00;10.40;;;8.35;;
9188;SDS011;34313;50.780;6.084;2023-07-08T06:04:25;10.88;;;8.77;;
9188;SDS011;34313;50.780;6.084;2023-07-08T06:06:52;9.18;;;8.02;;
9188;SDS011;34313;50.780;6.084;2023-07-08T06:09:17;11.55;;;8.27;;
9188;SDS011;34313;50.780;6.084;2023-07-08T06:11:42;8.48;;;7.68;;
9188;SDS011;34313;50.780;6.084;2023-07-08T06:14:08;9.23;;;7.55;;
9188;SDS011;34313;50.780;6.084;2023-07-08T06:16:33;10.55;;;8.00;;
9188;SDS011;34313;50.780;6.084;2023-07-08T06:18:59;9.90;;;8.40;;
9188;SDS011;34313;50.780;6.084;2023-07-08T06:21:25;9.13;;;8.18;;
9188;SDS011;34313;50.780;6.084;2023-07-08T06:23:51;8.82;;;8.02;;
9188;SDS011;34313;50.780;6.084;2023-07-08T06:26:16;15.30;;;8.70;;
9188;SDS011;34313;50.780;6.084;2023-07-08T06:28:41;9.85;;;8.77;;
9188;SDS011;34313;50.780;6.084;2023-07-08T06:31:06;9.70;;;8.70;;
9188;SDS011;34313;50.780;6.084;2023-07-08T06:33:32;8.52;;;7.72;;
9188;SDS011;34313;50.780;6.084;2023-07-08T06:35:57;9.13;;;7.88;;
9188;SDS011;34313;50.780;6.084;2023-07-08T06:38:22;10.25;;;8.48;;
9188;SDS011;34313;50.780;6.084;2023-07-08T06:40:48;11.68;;;8.98;;
9188;SDS011;34313;50.780;6.084;2023-07-08T06:43:13;9.77;;;8.05;;
9188;SDS011;34313;50.780;6.084;2023-07-08T06:45:39;13.82;;;9.15;;
9188;SDS011;34313;50.780;6.084;2023-07-08T06:48:05;12.23;;;8.52;;
9188;SDS011;34313;50.780;6.084;2023-07-08T06:50:31;10.38;;;8.25;;
9188;SDS011;34313;50.780;6.084;2023-07-08T06:52:56;9.60;;;8.35;;
9188;SDS011;34313;50.780;6.084;2023-07-08T06:55:21;8.48;;;7.65;;
9188;SDS011;34313;50.780;6.084;2023-07-08T06:57:49;9.15;;;7.97;;
9188;SDS011;34313;50.780;6.084;2023-07-08T07:00:18;10.35;;;8.40;;
9188;SDS011;34313;50.780;6.084;2023-07-08T07:02:46;16.08;;;8.60;;
9188;SDS011;34313;50.780;6.084;2023-07-08T07:05:11;11.75;;;7.57;;
9188;SDS011;34313;50.780;6.084;2023-07-08T07:07:42;12.38;;;7.90;;
9188;SDS011;34313;50.780;6.084;2023-07-08T07:10:11;10.02;;;7.78;;
9188;SDS011;34313;50.780;6.084;2023-07-08T07:12:37;10.02;;;7.28;;
9188;SDS011;34313;50.780;6.084;2023-07-08T07:15:02;8.18;;;7.38;;
9188;SDS011;34313;50.780;6.084;2023-07-08T07:17:29;8.85;;;7.85;;
9188;SDS011;34313;50.780;6.084;2023-07-08T07:20:00;8.02;;;6.53;;
9188;SDS011;34313;50.780;6.084;2023-07-08T07:22:28;19.10;;;7.43;;
9188;SDS011;34313;50.780;6.084;2023-07-08T07:24:57;9.48;;;7.68;;
9188;SDS011;34313;50.780;6.084;2023-07-08T07:27:26;7.68;;;6.35;;
9188;SDS011;34313;50.780;6.084;2023-07-08T07:30:01;7.50;;;6.70;;
9188;SDS011;34313;50.780;6.084;2023-07-08T07:32:27;10.93;;;6.80;;
9188;SDS011;34313;50.780;6.084;2023-07-08T07:34:54;7.93;;;7.13;;
9188;SDS011;34313;50.780;6.084;2023-07-08T07:37:21;9.18;;;8.00;;
9188;SDS011;34313;50.780;6.084;2023-07-08T07:39:47;8.20;;;7.22;;
9188;SDS011;34313;50.780;6.084;2023-07-08T07:42:13;8.63;;;6.95;;
9188;SDS011;34313;50.780;6.084;2023-07-08T07:44:40;6.80;;;6.15;;
9188;SDS011;34313;50.780;6.084;2023-07-08T07:47:05;7.97;;;7.25;;
9188;SDS011;34313;50.780;6.084;2023-07-08T07:49:32;7.47;;;6.68;;
9188;SDS011;34313;50.780;6.084;2023-07-08T07:51:57;8.82;;;6.25;;
9188;SDS011;34313;50.780;6.084;2023-07-08T07:54:23;10.48;;;6.93;;
9188;SDS011;34313;50.780;6.084;2023-07-08T07:56:51;16.67;;;7.53;;
9188;SDS011;34313;50.780;6.084;2023-07-08T07:59:17;8.25;;;7.05;;
9188;SDS011;34313;50.780;6.084;2023-07-08T08:01:43;13.90;;;7.40;;
9188;SDS011;34313;50.780;6.084;2023-07-08T08:04:09;8.30;;;7.60;;
9188;SDS011;34313;50.780;6.084;2023-07-08T08:06:35;12.50;;;7.70;;
9188;SDS011;34313;50.780;6.084;2023-07-08T08:09:01;7.00;;;6.28;;
9188;SDS011;34313;50.780;6.084;2023-07-08T08:11:26;7.05;;;6.43;;
9188;SDS011;34313;50.780;6.084;2023-07-08T08:13:52;8.40;;;6.85;;
9188;SDS011;34313;50.780;6.084;2023-07-08T08:16:18;10.20;;;7.47;;
9188;SDS011;34313;50.780;6.084;2023-07-08T08:18:44;8.45;;;7.40;;
9188;SDS011;34313;50.780;6.084;2023-07-08T08:21:10;11.43;;;7.72;;
9188;SDS011;34313;50.780;6.084;2023-07-08T08:23:35;8.85;;;7.22;;
9188;SDS011;34313;50.780;6.084;2023-07-08T08:26:00;8.10;;;7.35;;
9188;SDS011;34313;50.780;6.084;2023-07-08T08:28:26;7.43;;;6.72;;
9188;SDS011;34313;50.780;6.084;2023-07-08T08:30:51;12.32;;;7.28;;
9188;SDS011;34313;50.780;6.084;2023-07-08T08:33:19;11.48;;;6.53;;
9188;SDS011;34313;50.780;6.084;2023-07-08T08:35:44;9.27;;;6.80;;
9188;SDS011;34313;50.780;6.084;2023-07-08T08:38:10;7.88;;;7.13;;
9188;SDS011;34313;50.780;6.084;2023-07-08T08:40:36;7.28;;;6.57;;
9188;SDS011;34313;50.780;6.084;2023-07-08T08:43:03;6.43;;;5.70;;
9188;SDS011;34313;50.780;6.084;2023-07-08T08:45:35;9.88;;;6.50;;
9188;SDS011;34313;50.780;6.084;2023-07-08T08:48:09;6.93;;;5.47;;
9188;SDS011;34313;50.780;6.084;2023-07-08T08:50:42;8.75;;;5.97;;
9188;SDS011;34313;50.780;6.084;2023-07-08T08:53:14;9.00;;;6.25;;
9188;SDS011;34313;50.780;6.084;2023-07-08T08:55:42;7.38;;;5.05;;
9188;SDS011;34313;50.780;6.084;2023-07-08T09:01:08;8.15;;;5.65;;
9188;SDS011;34313;50.780;6.084;2023-07-08T09:03:46;7.85;;;5.80;;
9188;SDS011;34313;50.780;6.084;2023-07-08T09:06:33;7.18;;;5.45;;
9188;SDS011;34313;50.780;6.084;2023-07-08T09:09:05;7.47;;;5.80;;
9188;SDS011;34313;50.780;6.084;2023-07-08T09:11:45;11.32;;;6.07;;
9188;SDS011;34313;50.780;6.084;2023-07-08T09:14:27;6.72;;;5.53;;
9188;SDS011;34313;50.780;6.084;2023-07-08T09:17:07;9.65;;;5.80;;
9188;SDS011;34313;50.780;6.084;2023-07-08T09:25:25;7.93;;;5.70;;
9188;SDS011;34313;50.780;6.084;2023-07-08T09:28:00;8.77;;;5.78;;
9188;SDS011;34313;50.780;6.084;2023-07-08T09:30:26;9.50;;;6.32;;
9188;SDS011;34313;50.780;6.084;2023-07-08T09:32:53;7.72;;;5.55;;
9188;SDS011;34313;50.780;6.084;2023-07-08T09:35:23;10.10;;;6.00;;
9188;SDS011;34313;50.780;6.084;2023-07-08T09:37:51;8.77;;;5.15;;
9188;SDS011;34313;50.780;6.084;2023-07-08T09:40:51;6.38;;;5.35;;
9188;SDS011;34313;50.780;6.084;2023-07-08T09:46:02;8.27;;;6.40;;
9188;SDS011;34313;50.780;6.084;2023-07-08T09:48:29;8.10;;;6.10;;
9188;SDS011;34313;50.780;6.084;2023-07-08T09:50:58;7.70;;;6.57;;
9188;SDS011;34313;50.780;6.084;2023-07-08T09:53:24;7.75;;;6.00;;
9188;SDS011;34313;50.780;6.084;2023-07-08T09:55:51;8.38;;;6.22;;
9188;SDS011;34313;50.780;6.084;2023-07-08T09:58:23;10.23;;;6.32;;
9188;SDS011;34313;50.780;6.084;2023-07-08T10:00:54;9.32;;;5.63;;
9188;SDS011;34313;50.780;6.084;2023-07-08T10:03:23;7.50;;;5.63;;
9188;SDS011;34313;50.780;6.084;2023-07-08T10:05:52;7.13;;;5.95;;
9188;SDS011;34313;50.780;6.084;2023-07-08T10:08:22;8.65;;;6.00;;
9188;SDS011;34313;50.780;6.084;2023-07-08T10:10:59;8.75;;;5.65;;
9188;SDS011;34313;50.780;6.084;2023-07-08T10:13:33;11.23;;;6.57;;
9188;SDS011;34313;50.780;6.084;2023-07-08T10:18:41;9.60;;;5.78;;
9188;SDS011;34313;50.780;6.084;2023-07-08T10:26:57;9.15;;;5.90;;
9188;SDS011;34313;50.780;6.084;2023-07-08T10:29:44;7.63;;;5.93;;
9188;SDS011;34313;50.780;6.084;2023-07-08T10:32:22;6.22;;;5.38;;
9188;SDS011;34313;50.780;6.084;2023-07-08T10:35:08;8.70;;;6.32;;
9188;SDS011;34313;50.780;6.084;2023-07-08T10:40:53;6.93;;;5.72;;
9188;SDS011;34313;50.780;6.084;2023-07-08T10:48:41;13.77;;;5.95;;
9188;SDS011;34313;50.780;6.084;2023-07-08T10:56:55;10.27;;;6.00;;
9188;SDS011;34313;50.780;6.084;2023-07-08T10:59:59;8.75;;;6.13;;
9188;SDS011;34313;50.780;6.084;2023-07-08T11:10:51;12.27;;;6.80;;
9188;SDS011;34313;50.780;6.084;2023-07-08T11:13:21;8.18;;;5.65;;
9188;SDS011;34313;50.780;6.084;2023-07-08T11:16:07;8.73;;;6.50;;
9188;SDS011;34313;50.780;6.084;2023-07-08T11:18:41;9.70;;;5.93;;
9188;SDS011;34313;50.780;6.084;2023-07-08T11:21:14;12.32;;;6.88;;
9188;SDS011;34313;50.780;6.084;2023-07-08T11:23:45;8.32;;;5.85;;
9188;SDS011;34313;50.780;6.084;2023-07-08T11:26:20;9.55;;;6.10;;
9188;SDS011;34313;50.780;6.084;2023-07-08T11:28:53;7.85;;;6.28;;
9188;SDS011;34313;50.780;6.084;2023-07-08T11:31:22;9.07;;;6.30;;
9188;SDS011;34313;50.780;6.084;2023-07-08T11:33:49;9.60;;;6.35;;
9188;SDS011;34313;50.780;6.084;2023-07-08T11:36:16;9.65;;;5.88;;
9188;SDS011;34313;50.780;6.084;2023-07-08T11:38:54;12.18;;;6.60;;
9188;SDS011;34313;50.780;6.084;2023-07-08T11:41:21;11.88;;;5.88;;
9188;SDS011;34313;50.780;6.084;2023-07-08T11:43:52;9.15;;;5.78;;
9188;SDS011;34313;50.780;6.084;2023-07-08T11:46:23;8.75;;;6.03;;
9188;SDS011;34313;50.780;6.084;2023-07-08T11:48:53;10.57;;;6.20;;
9188;SDS011;34313;50.780;6.084;2023-07-08T11:51:24;11.52;;;6.13;;
9188;SDS011;34313;50.780;6.084;2023-07-08T11:54:01;10.63;;;5.50;;
9188;SDS011;34313;50.780;6.084;2023-07-08T11:59:37;11.85;;;7.15;;
9188;SDS011;34313;50.780;6.084;2023-07-08T12:04:52;11.82;;;6.32;;
9188;SDS011;34313;50.780;6.084;2023-07-08T12:07:20;9.88;;;6.00;;
9188;SDS011;34313;50.780;6.084;2023-07-08T12:09:57;10.38;;;6.72;;
9188;SDS011;34313;50.780;6.084;2023-07-08T12:12:32;8.02;;;6.93;;
9188;SDS011;34313;50.780;6.084;2023-07-08T12:15:12;9.35;;;7.00;;
9188;SDS011;34313;50.780;6.084;2023-07-08T12:17:39;7.10;;;5.45;;
9188;SDS011;34313;50.780;6.084;2023-07-08T12:20:06;8.13;;;6.15;;
9188;SDS011;34313;50.780;6.084;2023-07-08T12:22:44;8.95;;;5.88;;
9188;SDS011;34313;50.780;6.084;2023-07-08T12:25:13;11.60;;;6.55;;
9188;SDS011;34313;50.780;6.084;2023-07-08T12:27:41;9.70;;;5.90;;
9188;SDS011;34313;50.780;6.084;2023-07-08T12:30:08;12.52;;;6.47;;
9188;SDS011;34313;50.780;6.084;2023-07-08T12:32:36;8.77;;;5.82;;
9188;SDS011;34313;50.780;6.084;2023-07-08T12:35:01;13.63;;;7.70;;
9188;SDS011;34313;50.780;6.084;2023-07-08T12:37:29;11.52;;;6.50;;
9188;SDS011;34313;50.780;6.084;2023-07-08T12:39:56;11.25;;;6.25;;
9188;SDS011;34313;50.780;6.084;2023-07-08T12:42:28;9.45;;;5.45;;
9188;SDS011;34313;50.780;6.084;2023-07-08T12:44:55;8.93;;;5.72;;
9188;SDS011;34313;50.780;6.084;2023-07-08T12:47:21;8.85;;;5.45;;
9188;SDS011;34313;50.780;6.084;2023-07-08T12:49:47;11.35;;;7.20;;
9188;SDS011;34313;50.780;6.084;2023-07-08T12:52:18;9.73;;;6.70;;
9188;SDS011;34313;50.780;6.084;2023-07-08T12:54:47;10.80;;;6.63;;
9188;SDS011;34313;50.780;6.084;2023-07-08T12:57:17;11.63;;;7.18;;
9188;SDS011;34313;50.780;6.084;2023-07-08T12:59:43;10.07;;;6.65;;
9188;SDS011;34313;50.780;6.084;2023-07-08T13:02:17;10.73;;;6.82;;
9188;SDS011;34313;50.780;6.084;2023-07-08T13:04:44;8.85;;;7.13;;
9188;SDS011;34313;50.780;6.084;2023-07-08T13:07:27;10.02;;;6.10;;
9188;SDS011;34313;50.780;6.084;2023-07-08T13:09:58;9.15;;;6.35;;
9188;SDS011;34313;50.780;6.084;2023-07-08T13:12:25;9.57;;;6.85;;
9188;SDS011;34313;50.780;6.084;2023-07-08T13:14:51;10.77;;;6.25;;
9188;SDS011;34313;50.780;6.084;2023-07-08T13:17:19;13.43;;;6.72;;
9188;SDS011;34313;50.780;6.084;2023-07-08T13:19:44;10.32;;;6.18;;
9188;SDS011;34313;50.780;6.084;2023-07-08T13:22:12;9.23;;;6.93;;
9188;SDS011;34313;50.780;6.084;2023-07-08T13:24:44;8.52;;;6.28;;
9188;SDS011;34313;50.780;6.084;2023-07-08T13:27:14;8.63;;;6.18;;
9188;SDS011;34313;50.780;6.084;2023-07-08T13:29:46;9.63;;;6.35;;
9188;SDS011;34313;50.780;6.084;2023-07-08T13:32:11;9.13;;;5.78;;
9188;SDS011;34313;50.780;6.084;2023-07-08T13:34:37;11.75;;;5.97;;
9188;SDS011;34313;50.780;6.084;2023-07-08T13:37:08;9.80;;;6.33;;
9188;SDS011;34313;50.780;6.084;2023-07-08T13:39:43;8.85;;;5.82;;
9188;SDS011;34313;50.780;6.084;2023-07-08T13:42:10;10.73;;;6.53;;
9188;SDS011;34313;50.780;6.084;2023-07-08T13:44:41;8.35;;;6.00;;
9188;SDS011;34313;50.780;6.084;2023-07-08T13:50:15;6.97;;;5.82;;
9188;SDS011;34313;50.780;6.084;2023-07-08T13:52:53;8.18;;;6.00;;
9188;SDS011;34313;50.780;6.084;2023-07-08T13:55:20;10.63;;;6.68;;
9188;SDS011;34313;50.780;6.084;2023-07-08T13:57:54;9.18;;;6.20;;
9188;SDS011;34313;50.780;6.084;2023-07-08T14:00:25;12.52;;;6.82;;
9188;SDS011;34313;50.780;6.084;2023-07-08T14:02:53;13.00;;;6.13;;
9188;SDS011;34313;50.780;6.084;2023-07-08T14:05:18;8.57;;;5.85;;
9188;SDS011;34313;50.780;6.084;2023-07-08T14:07:46;10.07;;;6.47;;
9188;SDS011;34313;50.780;6.084;2023-07-08T14:10:13;7.18;;;6.40;;
9188;SDS011;34313;50.780;6.084;2023-07-08T14:12:40;10.82;;;5.75;;
9188;SDS011;34313;50.780;6.084;2023-07-08T14:15:05;7.35;;;6.20;;
9188;SDS011;34313;50.780;6.084;2023-07-08T14:17:31;9.75;;;5.13;;
9188;SDS011;34313;50.780;6.084;2023-07-08T14:19:57;8.63;;;6.00;;
9188;SDS011;34313;50.780;6.084;2023-07-08T14:22:23;9.43;;;6.88;;
9188;SDS011;34313;50.780;6.084;2023-07-08T14:24:52;9.82;;;6.30;;
9188;SDS011;34313;50.780;6.084;2023-07-08T14:27:18;9.88;;;6.38;;
9188;SDS011;34313;50.780;6.084;2023-07-08T14:29:48;9.15;;;5.88;;
9188;SDS011;34313;50.780;6.084;2023-07-08T14:32:15;9.10;;;5.88;;
9188;SDS011;34313;50.780;6.084;2023-07-08T14:35:10;9.10;;;5.65;;
9188;SDS011;34313;50.780;6.084;2023-07-08T14:38:09;7.85;;;5.80;;
9188;SDS011;34313;50.780;6.084;2023-07-08T14:40:36;8.43;;;5.63;;
9188;SDS011;34313;50.780;6.084;2023-07-08T14:43:03;8.98;;;5.10;;
9188;SDS011;34313;50.780;6.084;2023-07-08T14:45:32;10.00;;;5.97;;
9188;SDS011;34313;50.780;6.084;2023-07-08T14:48:08;9.13;;;5.88;;
9188;SDS011;34313;50.780;6.084;2023-07-08T14:50:35;7.40;;;6.10;;
9188;SDS011;34313;50.780;6.084;2023-07-08T14:53:00;9.77;;;5.75;;
9188;SDS011;34313;50.780;6.084;2023-07-08T14:55:26;7.35;;;5.90;;
9188;SDS011;34313;50.780;6.084;2023-07-08T14:57:51;10.80;;;5.57;;
9188;SDS011;34313;50.780;6.084;2023-07-08T15:00:18;8.50;;;6.25;;
9188;SDS011;34313;50.780;6.084;2023-07-08T15:02:44;10.18;;;6.15;;
9188;SDS011;34313;50.780;6.084;2023-07-08T15:05:19;7.93;;;6.22;;
9188;SDS011;34313;50.780;6.084;2023-07-08T15:07:49;9.57;;;5.85;;
9188;SDS011;34313;50.780;6.084;2023-07-08T15:10:15;9.07;;;5.70;;
9188;SDS011;34313;50.780;6.084;2023-07-08T15:12:41;6.57;;;5.85;;
9188;SDS011;34313;50.780;6.084;2023-07-08T15:15:27;8.05;;;6.32;;
9188;SDS011;34313;50.780;6.084;2023-07-08T15:17:55;10.80;;;6.28;;
9188;SDS011;34313;50.780;6.084;2023-07-08T15:20:25;7.88;;;5.95;;
9188;SDS011;34313;50.780;6.084;2023-07-08T15:22:51;9.35;;;6.38;;
9188;SDS011;34313;50.780;6.084;2023-07-08T15:25:17;9.68;;;6.53;;
9188;SDS011;34313;50.780;6.084;2023-07-08T15:27:47;6.80;;;5.95;;
9188;SDS011;34313;50.780;6.084;2023-07-08T15:30:17;11.30;;;5.95;;
9188;SDS011;34313;50.780;6.084;2023-07-08T15:32:48;11.80;;;6.70;;
9188;SDS011;34313;50.780;6.084;2023-07-08T15:35:18;8.23;;;6.32;;
9188;SDS011;34313;50.780;6.084;2023-07-08T15:37:45;8.98;;;6.88;;
9188;SDS011;34313;50.780;6.084;2023-07-08T15:40:12;9.48;;;6.38;;
9188;SDS011;34313;50.780;6.084;2023-07-08T15:42:42;9.10;;;6.03;;
9188;SDS011;34313;50.780;6.084;2023-07-08T15:45:22;8.13;;;6.60;;
9188;SDS011;34313;50.780;6.084;2023-07-08T15:47:50;12.32;;;6.90;;
9188;SDS011;34313;50.780;6.084;2023-07-08T15:50:17;9.13;;;6.78;;
9188;SDS011;34313;50.780;6.084;2023-07-08T15:52:47;11.88;;;6.22;;
9188;SDS011;34313;50.780;6.084;2023-07-08T15:55:14;13.65;;;7.45;;
9188;SDS011;34313;50.780;6.084;2023-07-08T15:57:52;12.20;;;7.30;;
9188;SDS011;34313;50.780;6.084;2023-07-08T16:00:24;13.40;;;6.95;;
9188;SDS011;34313;50.780;6.084;2023-07-08T16:02:54;17.15;;;6.70;;
9188;SDS011;34313;50.780;6.084;2023-07-08T16:05:24;9.00;;;6.85;;